createdAt,value
2023-01-02T00:36:55.743Z,5.00
2023-01-02T00:40:56.931Z,4.67
2023-01-02T00:44:58.206Z,4.13
2023-01-02T00:48:59.468Z,5.13
2023-01-02T00:53:00.825Z,4.70
2023-01-02T00:57:02.145Z,4.57
2023-01-02T01:01:03.899Z,4.63
2023-01-02T01:05:06.606Z,4.47
2023-01-02T01:09:07.898Z,5.10
2023-01-02T01:13:09.339Z,3.97
2023-01-02T01:17:10.546Z,4.83
2023-01-02T01:21:14.670Z,5.47
2023-01-02T01:25:16.255Z,4.47
2023-01-02T01:29:17.556Z,4.97
2023-01-02T01:33:18.754Z,4.53
2023-01-02T01:37:20.190Z,3.97
2023-01-02T01:41:25.177Z,4.40
2023-01-02T01:45:26.387Z,4.63
2023-01-02T01:49:29.540Z,3.53
2023-01-02T01:53:31.341Z,5.27
2023-01-02T01:57:38.921Z,4.00
2023-01-02T02:01:42.300Z,3.83
2023-01-02T02:05:45.670Z,4.53
2023-01-02T02:09:50.629Z,3.70
2023-01-02T02:13:52.725Z,3.60
2023-01-02T02:18:06.888Z,3.57
2023-01-02T02:22:47.493Z,4.20
2023-01-02T02:27:14.221Z,4.20
2023-01-02T02:31:37.429Z,3.60
2023-01-02T02:35:54.680Z,3.47
2023-01-02T02:40:05.752Z,3.30
2023-01-02T02:44:16.795Z,3.80
2023-01-02T02:48:24.717Z,3.33
2023-01-02T02:52:41.654Z,3.50
2023-01-02T02:56:44.628Z,3.77
2023-01-02T03:00:46.077Z,3.20
2023-01-02T03:04:54.154Z,4.33
2023-01-02T03:09:05.177Z,4.30
2023-01-02T03:13:22.258Z,4.03
2023-01-02T03:17:41.944Z,3.77
2023-01-02T03:21:56.012Z,4.13
2023-01-02T03:25:57.811Z,4.40
2023-01-02T03:30:02.808Z,4.10
2023-01-02T03:34:13.335Z,4.57
2023-01-02T03:38:23.862Z,3.63
2023-01-02T03:42:28.532Z,4.10
2023-01-02T03:46:36.243Z,3.97
2023-01-02T03:50:47.700Z,4.73
2023-01-02T03:54:48.882Z,3.80
2023-01-02T03:58:56.389Z,4.67
2023-01-02T04:03:10.825Z,4.47
2023-01-02T04:07:15.906Z,4.10
2023-01-02T04:11:20.006Z,4.47
2023-01-02T04:15:24.403Z,4.80
2023-01-02T04:19:41.567Z,4.37
2023-01-02T04:23:52.223Z,4.07
2023-01-02T04:28:06.757Z,3.93
2023-01-02T04:32:20.834Z,4.43
2023-01-02T04:36:22.715Z,5.03
2023-01-02T04:40:29.887Z,4.20
2023-01-02T04:44:31.087Z,5.00
2023-01-02T04:48:32.249Z,5.10
2023-01-02T04:52:37.310Z,5.00
2023-01-02T04:56:36.751Z,4.90
2023-01-02T05:00:38.240Z,4.70
2023-01-02T05:04:39.448Z,4.60
2023-01-02T05:08:40.831Z,4.10
2023-01-02T05:12:42.158Z,4.30
2023-01-02T05:16:43.330Z,4.57
2023-01-02T05:20:44.499Z,4.30
2023-01-02T05:24:45.671Z,4.70
2023-01-02T05:28:46.854Z,4.13
2023-01-02T05:32:48.152Z,4.50
2023-01-02T05:36:49.329Z,3.83
2023-01-02T05:41:04.797Z,4.87
2023-01-02T05:45:07.145Z,4.10
2023-01-02T05:49:09.520Z,4.13
2023-01-02T05:53:10.706Z,5.07
2023-01-02T05:57:11.897Z,5.10
2023-01-02T06:01:19.249Z,4.70
2023-01-02T06:05:20.626Z,4.57
2023-01-02T06:09:21.832Z,4.20
2023-01-02T06:13:22.962Z,4.60
2023-01-02T06:17:24.160Z,3.90
2023-01-02T06:21:25.335Z,4.70
2023-01-02T06:25:26.522Z,3.80
2023-01-02T06:29:27.680Z,4.40
2023-01-02T06:33:30.092Z,4.27
2023-01-02T06:37:31.264Z,4.13
2023-01-02T06:41:32.510Z,3.43
2023-01-02T06:45:33.973Z,3.60
2023-01-02T06:49:35.192Z,3.70
2023-01-02T06:53:38.678Z,4.20
2023-01-02T06:57:39.860Z,4.30
2023-01-02T07:01:41.144Z,3.90
2023-01-02T07:05:43.147Z,3.60
2023-01-02T07:09:44.336Z,3.43
2023-01-02T07:13:47.398Z,3.60
2023-01-02T07:17:48.583Z,4.40
2023-01-02T07:21:49.786Z,3.97
2023-01-02T07:25:53.658Z,4.40
2023-01-02T07:29:55.049Z,3.10
2023-01-02T07:33:58.041Z,4.30
2023-01-02T07:37:59.211Z,3.80
2023-01-02T07:42:00.429Z,3.80
2023-01-02T07:46:03.170Z,4.23
2023-01-02T07:50:05.111Z,3.80
2023-01-02T07:54:06.284Z,4.47
2023-01-02T07:58:07.444Z,3.30
2023-01-02T08:02:10.796Z,4.13
2023-01-02T08:06:14.714Z,3.93
2023-01-02T08:10:15.994Z,4.67
2023-01-02T08:14:23.253Z,3.30
2023-01-02T08:18:20.327Z,3.73
2023-01-02T08:22:21.700Z,4.17
2023-01-02T08:26:23.393Z,4.07
2023-01-02T08:30:25.647Z,4.00
2023-01-02T08:34:26.770Z,3.57
2023-01-02T08:38:30.562Z,4.07
2023-01-02T08:42:31.744Z,4.20
2023-01-02T08:46:42.007Z,3.77
2023-01-02T08:50:38.145Z,3.40
2023-01-02T08:54:39.423Z,7.47
2023-01-02T08:58:40.564Z,4.30
2023-01-02T09:02:41.937Z,4.53
2023-01-02T09:06:43.804Z,4.97
2023-01-02T09:10:45.259Z,4.23
2023-01-02T09:14:46.400Z,4.90
2023-01-02T09:18:48.506Z,4.27
2023-01-02T09:22:49.633Z,3.93
2023-01-02T09:26:50.917Z,3.53
2023-01-02T09:30:52.098Z,4.30
2023-01-02T09:34:53.227Z,5.87
2023-01-02T09:38:56.981Z,4.10
2023-01-02T09:42:59.155Z,3.70
2023-01-02T09:47:04.131Z,4.07
2023-01-02T09:51:07.946Z,4.53
2023-01-02T09:55:30.578Z,4.47
2023-01-02T09:59:35.128Z,4.17
2023-01-02T10:03:48.946Z,3.90
2023-01-02T10:07:59.479Z,4.73
2023-01-02T10:12:07.785Z,4.23
2023-01-02T10:16:13.058Z,3.60
2023-01-02T10:20:23.838Z,4.47
2023-01-02T10:24:25.315Z,4.90
2023-01-02T10:28:45.657Z,5.07
2023-01-02T10:33:06.145Z,3.80
2023-01-02T10:37:15.323Z,4.63
2023-01-02T10:41:17.554Z,4.07
2023-01-02T10:45:18.697Z,5.13
2023-01-02T10:49:21.717Z,5.73
2023-01-02T10:53:32.488Z,5.43
2023-01-02T10:57:50.746Z,3.97
2023-01-02T11:01:57.134Z,4.10
2023-01-02T11:06:10.268Z,5.20
2023-01-02T11:10:01.835Z,4.30
2023-01-02T11:14:07.786Z,4.53
2023-01-02T11:18:12.761Z,4.57
2023-01-02T11:22:17.733Z,4.50
2023-01-02T11:35:04.793Z,4.20
2023-01-02T11:39:25.715Z,4.17
2023-01-02T11:43:49.809Z,5.07
2023-01-02T11:48:01.078Z,3.93
2023-01-02T11:52:04.955Z,4.33
2023-01-02T11:56:16.571Z,4.80
2023-01-02T12:00:20.163Z,5.60
2023-01-02T12:04:21.841Z,4.27
2023-01-02T12:08:34.938Z,4.40
2023-01-02T12:12:58.513Z,4.57
2023-01-02T12:17:11.265Z,4.20
2023-01-02T12:21:34.318Z,3.97
2023-01-02T12:25:54.673Z,5.17
2023-01-02T12:30:09.074Z,4.30
2023-01-02T12:34:40.356Z,5.23
2023-01-02T12:38:51.406Z,4.23
2023-01-02T12:42:56.775Z,4.80
2023-01-02T12:47:04.983Z,5.57
2023-01-02T12:51:30.166Z,4.67
2023-01-02T12:55:47.889Z,4.63
2023-01-02T13:00:02.275Z,4.57
2023-01-02T13:04:13.423Z,5.00
2023-01-02T13:08:18.369Z,4.57
2023-01-02T13:12:22.049Z,4.37
2023-01-02T13:16:25.739Z,5.00
2023-01-02T13:20:59.689Z,5.10
2023-01-02T13:25:02.010Z,4.97
2023-01-02T13:29:13.202Z,4.57
2023-01-02T13:33:24.475Z,5.03
2023-01-02T13:37:28.864Z,6.50
2023-01-02T13:41:33.412Z,5.23
2023-01-02T13:45:39.499Z,4.73
2023-01-02T13:49:41.814Z,4.50
2023-01-02T13:53:51.592Z,5.07
2023-01-02T13:58:15.062Z,4.30
2023-01-02T14:02:22.082Z,4.20
2023-01-02T14:06:53.394Z,3.90
2023-01-02T14:11:19.496Z,4.90
2023-01-02T14:15:24.835Z,4.50
2023-01-02T14:24:17.946Z,4.50
2023-01-02T14:28:04.877Z,4.30
2023-01-02T14:32:13.202Z,4.37
2023-01-02T14:36:23.010Z,4.50
2023-01-02T14:40:38.321Z,3.60
2023-01-02T14:44:43.372Z,4.67
2023-01-02T14:48:54.091Z,5.10
2023-01-02T14:53:04.823Z,3.70
2023-01-02T14:57:09.796Z,4.67
2023-01-02T15:01:14.746Z,5.47
2023-01-02T15:05:21.464Z,5.10
2023-01-02T15:09:37.907Z,4.77
2023-01-02T15:14:03.868Z,5.30
2023-01-02T15:17:52.064Z,5.47
2023-01-02T15:21:54.685Z,7.23
2023-01-02T15:26:32.939Z,5.23
2023-01-02T15:30:20.006Z,4.53
2023-01-02T15:34:28.412Z,4.90
2023-01-02T15:38:30.641Z,4.00
2023-01-02T15:42:50.581Z,5.20
2023-01-02T15:46:52.383Z,4.50
2023-01-02T15:50:58.721Z,4.83
2023-01-02T15:55:00.282Z,3.63
2023-01-02T15:59:01.816Z,2.50
2023-01-02T16:03:09.002Z,3.00
2023-01-02T16:07:23.114Z,2.50
2023-01-02T16:11:26.548Z,2.77
2023-01-02T16:15:32.044Z,2.93
2023-01-02T16:19:40.075Z,3.30
2023-01-02T16:23:45.040Z,3.07
2023-01-02T16:27:56.101Z,3.70
2023-01-02T16:32:00.062Z,3.13
2023-01-02T16:36:17.056Z,2.67
2023-01-02T16:40:58.802Z,2.43
2023-01-02T16:44:32.053Z,2.10
2023-01-02T16:48:36.248Z,1.83
2023-01-02T16:52:37.543Z,2.03
2023-01-02T16:56:38.716Z,1.50
2023-01-02T17:00:43.650Z,1.50
2023-01-02T17:04:44.332Z,1.73
2023-01-02T17:08:48.761Z,1.93
2023-01-02T17:12:50.253Z,2.17
2023-01-02T17:16:51.497Z,2.60
2023-01-02T17:20:52.643Z,2.33
2023-01-02T17:24:55.096Z,1.70
2023-01-02T17:28:58.415Z,2.30
2023-01-02T17:33:03.947Z,2.00
2023-01-02T17:37:02.714Z,2.10
2023-01-02T17:41:04.156Z,1.93
2023-01-02T17:45:06.321Z,1.30
2023-01-02T17:49:09.292Z,1.60
2023-01-02T17:53:10.447Z,1.20
2023-01-02T17:57:11.601Z,1.97
2023-01-02T18:01:18.370Z,1.43
2023-01-02T18:05:20.631Z,1.80
2023-01-02T18:09:22.928Z,1.53
2023-01-02T18:13:27.081Z,1.67
2023-01-02T18:17:30.383Z,1.37
2023-01-02T18:21:33.531Z,2.27
2023-01-02T18:25:34.681Z,1.83
2023-01-02T18:29:35.897Z,1.60
2023-01-02T18:33:37.443Z,1.57
2023-01-02T18:37:40.170Z,1.70
2023-01-02T18:41:41.901Z,1.43
2023-01-02T18:45:43.436Z,1.80
2023-01-02T18:49:44.936Z,1.80
2023-01-02T18:53:51.430Z,1.90
2023-01-02T18:58:08.666Z,1.80
2023-01-02T19:02:28.653Z,8.00
2023-01-02T19:06:32.010Z,9.50
2023-01-02T19:10:39.135Z,5.40
2023-01-02T19:14:42.213Z,2.40
2023-01-02T19:18:45.944Z,1.50
2023-01-02T19:22:47.204Z,1.80
2023-01-02T19:26:51.657Z,1.20
2023-01-02T19:30:53.012Z,1.77
2023-01-02T19:34:57.468Z,1.43
2023-01-02T19:38:59.785Z,1.57
2023-01-02T19:43:00.947Z,1.60
2023-01-02T19:47:02.370Z,2.20
2023-01-02T19:51:03.619Z,1.20
2023-01-02T19:55:06.541Z,1.70
2023-01-02T19:59:12.607Z,1.93
2023-01-02T20:03:10.827Z,1.60
2023-01-02T20:07:12.137Z,1.80
2023-01-02T20:11:15.246Z,1.63
2023-01-02T20:15:20.239Z,1.47
2023-01-02T20:19:21.433Z,1.93
2023-01-02T20:23:22.619Z,2.40
2023-01-02T20:27:24.275Z,2.10
2023-01-02T20:31:25.460Z,1.33
2023-01-02T20:35:26.608Z,1.30
2023-01-02T20:39:27.769Z,1.47
2023-01-02T20:43:29.022Z,1.50
2023-01-02T20:47:30.237Z,1.80
2023-01-02T20:51:32.106Z,1.80
2023-01-02T20:55:33.251Z,2.00
2023-01-02T20:59:35.270Z,2.30
2023-01-02T21:03:36.610Z,1.90
2023-01-02T21:07:38.208Z,1.93
2023-01-02T21:11:39.481Z,2.77
2023-01-02T21:15:44.724Z,2.40
2023-01-02T21:19:45.951Z,2.43
2023-01-02T21:23:48.473Z,3.40
2023-01-02T21:27:49.954Z,2.60
2023-01-02T21:31:51.195Z,3.00
2023-01-02T21:35:55.325Z,2.73
2023-01-02T21:39:56.821Z,1.80
2023-01-02T21:43:58.425Z,2.37
2023-01-02T21:48:00.001Z,2.67
2023-01-02T21:52:01.640Z,2.30
2023-01-02T21:56:03.434Z,1.90
2023-01-02T22:00:18.677Z,2.33
2023-01-02T22:04:39.415Z,2.10
2023-01-02T22:13:14.773Z,1.97
2023-01-02T22:17:19.308Z,2.13
2023-01-02T22:21:20.631Z,1.33
2023-01-02T22:25:22.816Z,1.80
2023-01-02T22:29:51.418Z,2.13
2023-01-02T22:33:29.777Z,2.20
2023-01-02T22:37:31.298Z,2.30
2023-01-02T22:41:35.721Z,1.83
2023-01-02T22:45:41.325Z,2.03
2023-01-02T22:49:45.021Z,1.80
2023-01-02T22:53:48.627Z,1.87
2023-01-02T22:57:51.759Z,2.07
2023-01-02T23:01:54.774Z,1.90
2023-01-02T23:05:56.844Z,2.00
2023-01-02T23:10:00.139Z,1.87
2023-01-02T23:14:02.069Z,1.73
2023-01-02T23:18:22.670Z,2.20
2023-01-02T23:22:24.371Z,1.83
2023-01-02T23:26:29.830Z,1.63
2023-01-02T23:30:31.591Z,2.23
2023-01-02T23:34:33.265Z,2.27
2023-01-02T23:38:34.977Z,2.30
2023-01-02T23:42:36.480Z,2.10
2023-01-02T23:46:40.427Z,2.77
2023-01-02T23:50:43.761Z,2.00
2023-01-02T23:54:45.676Z,1.90
2023-01-02T23:58:49.536Z,2.10
